Time;durP1;ratioP1;P1;durP2;ratioP2;P2;SDS_P1;SDS_P2;PMS_P1;PMS_P2;Temp;Humidity;BMP_temperature;BMP_pressure;BME280_temperature;BME280_humidity;BME280_pressure;Samples;Min_cycle;Max_cycle;Signal;HPM_P1;HPM_P2
2022/06/03 00:02:23;;;;;;;5.57;4.10;;;;;;;13.29;57.51;101880.41;4928677;29;20471;-79
2022/06/03 00:05:14;;;;;;;9.17;4.13;;;;;;;13.29;56.85;101879.53;4899534;29;20056;-79
2022/06/03 00:07:40;;;;;;;;;;;;;;;13.38;55.06;101886.47;4917121;29;20574;-79
2022/06/03 00:10:16;;;;;;;5.43;4.05;;;;;;;13.27;57.54;101878.69;4918711;29;20367;-79
2022/06/03 00:13:00;;;;;;;5.50;3.60;;;;;;;13.25;57.58;101885.78;4883771;29;20058;-79
2022/06/03 00:15:47;;;;;;;6.25;4.05;;;;;;;13.23;56.51;101883.16;4916519;29;20456;-79
2022/06/03 00:18:39;;;;;;;11.68;4.20;;;;;;;13.20;57.10;101879.66;4899335;29;20082;-78
2022/06/03 00:21:09;;;;;;;5.13;4.13;;;;;;;13.15;58.82;101878.84;4899300;29;20040;-79
2022/06/03 00:24:04;;;;;;;6.43;3.80;;;;;;;13.17;56.85;101882.38;4916573;29;20522;-79
2022/06/03 00:26:44;;;;;;;7.28;4.13;;;;;;;13.10;57.67;101879.81;4902748;29;20102;-79
2022/06/03 00:29:43;;;;;;;4.25;3.83;;;;;;;13.08;57.49;101876.31;4916386;29;20055;-79
2022/06/03 00:32:29;;;;;;;6.85;3.90;;;;;;;13.03;57.58;101883.47;4916417;29;20151;-79
2022/06/03 00:35:13;;;;;;;5.32;3.78;;;;;;;13.00;58.16;101888.81;4916039;29;20421;-79
2022/06/03 00:38:00;;;;;;;5.28;3.58;;;;;;;13.01;56.08;101879.97;4916341;29;20052;-79
2022/06/03 00:40:41;;;;;;;4.82;3.70;;;;;;;12.96;57.63;101876.50;4915250;29;20512;-79
2022/06/03 00:43:25;;;;;;;5.30;3.85;;;;;;;12.96;57.82;101876.50;4915806;29;20071;-79
2022/06/03 00:45:50;;;;;;;8.55;4.30;;;;;;;12.94;59.18;101870.31;4897235;29;20043;-79
2022/06/03 00:48:19;;;;;;;5.18;4.07;;;;;;;12.90;59.34;101874.78;4898855;29;20044;-79
2022/06/03 00:50:59;;;;;;;9.35;4.50;;;;;;;12.88;58.81;101876.63;4916059;29;20032;-79
2022/06/03 00:53:34;;;;;;;9.18;4.38;;;;;;;12.87;58.40;101868.66;4911158;29;20051;-79
2022/06/03 00:56:36;;;;;;;5.97;3.75;;;;;;;12.85;57.28;101868.66;4898539;29;20046;-79
2022/06/03 00:59:05;;;;;;;8.63;4.38;;;;;;;12.83;59.13;101867.84;4915463;29;20202;-79
2022/06/03 01:01:53;;;;;;;7.25;3.92;;;;;;;12.78;58.65;101863.47;4909392;29;20028;-79
2022/06/03 01:04:35;;;;;;;6.60;4.10;;;;;;;12.78;59.04;101872.31;4924605;29;20119;-78
2022/06/03 01:07:09;;;;;;;5.47;4.32;;;;;;;12.77;58.84;101865.25;4919002;29;20094;-79
2022/06/03 01:09:38;;;;;;;4.47;4.07;;;;;;;12.78;59.19;101859.00;4915497;29;20123;-79
2022/06/03 01:12:17;;;;;;;5.55;4.07;;;;;;;12.77;59.75;101851.09;4915442;29;20377;-78
2022/06/03 01:15:16;;;;;;;5.57;3.97;;;;;;;12.78;58.72;101858.16;4923524;29;20567;-79
2022/06/03 01:18:06;;;;;;;9.75;4.22;;;;;;;12.77;59.00;101867.03;4916423;29;20139;-79
2022/06/03 01:21:16;;;;;;;5.13;3.97;;;;;;;12.78;58.47;101860.81;4915516;29;20054;-79
2022/06/03 01:24:00;;;;;;;5.63;3.92;;;;;;;12.76;59.40;101851.97;4922877;29;20176;-79
2022/06/03 01:27:05;;;;;;;5.57;4.28;;;;;;;12.77;58.80;101851.97;4885978;29;20142;-79
2022/06/03 01:30:08;;;;;;;5.53;4.20;;;;;;;12.80;58.90;101851.03;4875169;29;20448;-79
2022/06/03 01:33:07;;;;;;;5.10;3.63;;;;;;;12.82;58.17;101846.56;4902596;29;20453;-79
2022/06/03 01:35:48;;;;;;;5.72;3.85;;;;;;;12.79;59.25;101842.19;4903593;29;20052;-79
2022/06/03 01:38:43;;;;;;;4.68;3.75;;;;;;;12.80;59.13;101830.63;4899645;29;20052;-79
2022/06/03 01:41:43;;;;;;;4.93;3.75;;;;;;;12.82;59.06;101841.25;4922599;29;20036;-79
2022/06/03 01:44:18;;;;;;;7.07;4.17;;;;;;;12.78;59.13;101840.41;4922634;29;20048;-79
2022/06/03 01:47:03;;;;;;;5.80;4.15;;;;;;;12.79;58.60;101830.69;4915348;29;20119;-79
2022/06/03 01:50:02;;;;;;;6.15;4.20;;;;;;;12.78;59.09;101827.13;4914928;29;20123;-79
2022/06/03 01:53:03;;;;;;;5.88;4.00;;;;;;;12.78;58.79;101820.94;4898377;29;20090;-79
2022/06/03 01:56:11;;;;;;;7.30;4.25;;;;;;;12.76;59.42;101823.63;4897627;29;20050;-79
2022/06/03 01:59:14;;;;;;;7.97;4.35;;;;;;;12.74;59.00;101828.09;4900516;29;20051;-79
2022/06/03 02:01:57;;;;;;;5.53;4.20;;;;;;;12.69;60.31;101824.63;4914637;29;20056;-79
2022/06/03 02:05:07;;;;;;;4.57;3.97;;;;;;;12.70;59.07;101824.59;4914364;29;20329;-79
2022/06/03 02:07:40;;;;;;;6.38;4.10;;;;;;;12.65;60.34;101823.78;4903776;29;20072;-79
2022/06/03 02:10:27;;;;;;;5.20;4.00;;;;;;;12.62;60.83;101828.28;4912309;29;20545;-79
2022/06/03 02:13:11;;;;;;;10.70;4.15;;;;;;;12.59;59.99;101831.84;4897320;29;20055;-79
2022/06/03 02:15:57;;;;;;;9.90;4.07;;;;;;;12.57;60.07;101822.16;4901543;29;20040;-79
2022/06/03 02:18:32;;;;;;;8.63;4.18;;;;;;;12.51;60.66;101820.44;4897095;29;20453;-79
2022/06/03 02:21:12;;;;;;;5.93;3.95;;;;;;;12.47;60.59;101822.28;4914397;29;20400;-79
2022/06/03 02:24:06;;;;;;;6.55;4.07;;;;;;;12.43;60.48;101819.66;4881883;29;20048;-79
2022/06/03 02:26:38;;;;;;;5.13;3.85;;;;;;;12.38;61.18;101819.72;4928833;29;20048;-78
2022/06/03 02:32:43;;;;;;;7.57;4.25;;;;;;;12.34;60.65;101810.06;4914646;29;20563;-79
2022/06/03 02:35:29;;;;;;;6.93;4.10;;;;;;;12.29;60.78;101811.91;4914178;29;20092;-79
2022/06/03 02:38:27;;;;;;;6.32;4.55;;;;;;;12.28;60.96;101807.47;4914246;29;20083;-79
2022/06/03 02:40:59;;;;;;;5.65;4.40;;;;;;;12.21;62.27;101803.16;4911018;29;20095;-79
2022/06/03 02:43:42;;;;;;;9.55;4.20;;;;;;;12.15;61.89;101805.91;4914003;29;20119;-79
2022/06/03 02:46:17;;;;;;;5.90;4.22;;;;;;;12.10;62.15;101811.25;4901841;29;20048;-79
2022/06/03 02:49:02;;;;;;;5.60;4.15;;;;;;;12.08;62.44;101804.22;4896855;29;20214;-79
2022/06/03 02:51:27;;;;;;;7.38;4.40;;;;;;;12.04;62.45;101803.34;4913836;29;20040;-79
2022/06/03 02:54:36;;;;;;;9.13;4.57;;;;;;;12.02;61.97;101797.22;4914221;29;20040;-79
2022/06/03 02:57:13;;;;;;;6.22;4.38;;;;;;;11.96;62.36;101792.84;4878361;29;20393;-79
2022/06/03 03:00:00;;;;;;;6.15;4.72;;;;;;;11.92;63.09;101793.78;4914021;29;20044;-79
2022/06/03 03:03:00;;;;;;;8.65;4.45;;;;;;;11.85;62.66;101789.41;4914005;29;20058;-79
2022/06/03 03:05:38;;;;;;;7.57;4.80;;;;;;;11.84;62.26;101791.19;4902106;29;20153;-78
2022/06/03 03:08:03;;;;;;;5.95;4.90;;;;;;;11.79;62.63;101795.69;4913790;29;20071;-79
2022/06/03 03:10:29;;;;;;;7.28;4.70;;;;;;;11.75;64.12;101796.59;4906680;29;20112;-79
2022/06/03 03:13:15;;;;;;;6.15;5.03;;;;;;;11.76;63.50;101802.78;4907325;29;20467;-79
2022/06/03 03:16:07;;;;;;;8.27;4.80;;;;;;;11.75;62.82;101803.69;4896724;29;20071;-78
2022/06/03 03:18:51;;;;;;;6.07;4.75;;;;;;;11.74;63.11;101800.13;4909647;29;20134;-79
2022/06/03 03:21:55;;;;;;;6.28;5.05;;;;;;;11.72;62.84;101798.41;4898104;29;20052;-79
2022/06/03 03:24:51;;;;;;;4.97;3.53;;;;;;;11.69;61.43;101799.31;4900552;29;20364;-79
2022/06/03 03:27:29;;;;;;;8.10;4.75;;;;;;;11.65;63.98;101794.06;4919051;29;20055;-79
2022/06/03 03:30:12;;;;;;;9.05;4.90;;;;;;;11.62;63.30;101795.88;4935978;29;20052;-79
2022/06/03 03:33:05;;;;;;;7.30;4.55;;;;;;;11.58;63.91;101786.19;4917325;29;20061;-79
2022/06/03 03:36:13;;;;;;;6.18;5.00;;;;;;;11.58;63.42;101787.97;4916892;29;20131;-79
2022/06/03 03:39:16;;;;;;;6.25;4.88;;;;;;;11.54;63.74;101780.91;4899917;29;20487;-79
2022/06/03 03:42:03;;;;;;;6.72;4.55;;;;;;;11.52;64.13;101780.97;4916886;29;20452;-79
2022/06/03 03:44:55;;;;;;;6.82;5.10;;;;;;;11.52;62.69;101785.34;4904404;29;20433;-79
2022/06/03 03:47:48;;;;;;;7.30;4.72;;;;;;;11.45;63.51;101771.31;4896866;29;20131;-79
2022/06/03 03:50:49;;;;;;;8.05;4.68;;;;;;;11.47;63.86;101777.44;4899943;29;20460;-79
2022/06/03 03:54:08;;;;;;;7.97;5.35;;;;;;;11.46;64.21;101780.13;4906171;29;20138;-79
2022/06/03 03:57:03;;;;;;;6.70;5.03;;;;;;;11.43;64.29;101773.09;4909491;29;20048;-79
2022/06/03 03:59:57;;;;;;;8.48;5.38;;;;;;;11.40;65.35;101771.34;4902271;29;20063;-79
2022/06/03 04:02:57;;;;;;;6.10;4.68;;;;;;;11.42;64.95;101771.31;4916863;29;20044;-79
2022/06/03 04:05:47;;;;;;;7.00;5.15;;;;;;;11.38;64.96;101775.78;4899609;29;20040;-79
2022/06/03 04:08:28;;;;;;;6.77;4.90;;;;;;;11.38;65.43;101772.25;4916896;29;20266;-79
2022/06/03 04:11:24;;;;;;;13.95;5.88;;;;;;;11.39;65.24;101766.03;4896183;29;20319;-79
2022/06/03 04:14:02;;;;;;;7.25;5.30;;;;;;;11.39;65.98;101763.38;4899552;29;20040;-79
2022/06/03 04:16:48;;;;;;;7.75;5.22;;;;;;;11.38;66.47;101765.19;4916397;29;20138;-80
2022/06/03 04:19:24;;;;;;;6.68;5.60;;;;;;;11.39;65.85;101763.38;4877724;29;20511;-80
2022/06/03 04:22:21;;;;;;;8.98;5.47;;;;;;;11.40;65.94;101766.03;4916471;29;20056;-80
2022/06/03 04:25:15;;;;;;;7.55;6.07;;;;;;;11.41;66.47;101765.13;4916683;29;20052;-79
2022/06/03 04:28:02;;;;;;;8.88;5.57;;;;;;;11.44;66.18;101763.34;4906784;29;20203;-80
2022/06/03 04:30:46;;;;;;;9.73;5.00;;;;;;;11.47;66.14;101764.19;4916386;29;20147;-80
2022/06/03 04:33:51;;;;;;;6.32;5.38;;;;;;;11.52;66.24;101766.78;4898412;29;20075;-80
2022/06/03 04:37:02;;;;;;;7.43;5.97;;;;;;;11.52;66.42;101761.47;4896543;29;20111;-80
2022/06/03 04:40:05;;;;;;;7.95;5.50;;;;;;;11.57;65.88;101752.59;4874079;29;20113;-80
2022/06/03 04:42:46;;;;;;;10.63;6.20;;;;;;;11.60;66.56;101749.91;4901325;29;20088;-80
2022/06/03 04:45:33;;;;;;;6.90;5.90;;;;;;;11.65;66.95;101762.22;4897008;29;20139;-80
2022/06/03 04:48:32;;;;;;;13.05;6.00;;;;;;;11.70;66.46;101758.63;4907217;29;20082;-80
2022/06/03 04:51:13;;;;;;;7.30;5.90;;;;;;;11.74;66.45;101762.13;4898923;29;20365;-80
2022/06/03 04:54:20;;;;;;;8.60;6.10;;;;;;;11.82;65.89;101769.09;4916084;29;20059;-80
2022/06/03 04:57:04;;;;;;;8.63;5.90;;;;;;;11.91;66.33;101769.91;4881871;29;20051;-80
2022/06/03 04:59:57;;;;;;;6.30;5.50;;;;;;;12.03;65.56;101767.09;4916136;29;20076;-79
2022/06/03 05:02:43;;;;;;;8.52;5.30;;;;;;;12.13;65.81;101771.38;4915844;29;20044;-80
2022/06/03 05:05:17;;;;;;;8.55;6.13;;;;;;;12.23;65.57;101775.66;4898621;29;20063;-80
2022/06/03 05:07:52;;;;;;;9.38;5.95;;;;;;;12.32;66.14;101773.81;4915779;29;20103;-79
2022/06/03 05:10:52;;;;;;;7.75;5.82;;;;;;;12.44;65.36;101766.53;4915626;29;20131;-79
2022/06/03 05:13:29;;;;;;;9.75;5.65;;;;;;;12.54;64.87;101771.72;4915375;29;20044;-79
2022/06/03 05:16:17;;;;;;;7.80;5.13;;;;;;;12.63;64.93;101771.56;4898673;29;20542;-80
2022/06/03 05:18:51;;;;;;;7.10;6.28;;;;;;;12.72;65.32;101771.41;4915887;29;20131;-79
2022/06/03 05:21:59;;;;;;;8.38;5.97;;;;;;;12.85;64.15;101769.44;4915521;29;20151;-79
2022/06/03 05:25:04;;;;;;;10.68;6.18;;;;;;;12.94;64.37;101766.63;4859990;29;20056;-80
2022/06/03 05:27:57;;;;;;;8.60;6.25;;;;;;;13.05;64.04;101763.78;4896053;29;20048;-80
2022/06/03 05:31:05;;;;;;;8.27;6.65;;;;;;;13.15;63.30;101764.50;4897881;29;20059;-79
2022/06/03 05:33:46;;;;;;;7.97;5.70;;;;;;;13.24;63.58;101761.69;4897647;29;20050;-79
2022/06/03 05:36:31;;;;;;;7.22;5.70;;;;;;;13.34;63.59;101763.28;4898308;29;20253;-80
2022/06/03 05:39:06;;;;;;;10.98;5.57;;;;;;;13.43;62.62;101754.28;4913553;29;20048;-80
2022/06/03 05:45:11;;;;;;;9.38;5.57;;;;;;;13.64;62.31;101755.63;4912983;29;20446;-80
2022/06/03 05:47:54;;;;;;;6.82;5.50;;;;;;;13.75;62.41;101756.28;4918349;29;20043;-79
2022/06/03 05:50:28;;;;;;;8.63;5.90;;;;;;;13.84;62.40;101749.88;4920115;29;20050;-80
2022/06/03 05:53:11;;;;;;;7.40;5.85;;;;;;;13.93;61.87;101758.56;4897513;29;20500;-79
2022/06/03 05:55:53;;;;;;;9.77;6.47;;;;;;;14.02;61.80;101754.84;4909000;29;20496;-79
2022/06/03 05:58:33;;;;;;;8.52;5.82;;;;;;;14.10;61.27;101747.56;4914775;29;20381;-80
2022/06/03 06:01:26;;;;;;;8.23;5.65;;;;;;;14.16;61.46;101758.06;4897393;29;20052;-79
2022/06/03 06:03:55;;;;;;;8.60;6.03;;;;;;;14.26;61.17;101753.41;4897449;29;20044;-79
2022/06/03 06:06:55;;;;;;;7.38;5.47;;;;;;;14.36;60.66;101746.94;4897380;29;20150;-80
2022/06/03 06:09:45;;;;;;;8.70;6.10;;;;;;;14.48;60.55;101750.25;4914572;29;20044;-79
2022/06/03 06:12:20;;;;;;;8.05;5.88;;;;;;;14.56;60.33;101758.97;4871144;29;20060;-80
2022/06/03 06:14:57;;;;;;;8.85;5.22;;;;;;;14.65;59.49;101761.41;4901290;29;20076;-80
2022/06/03 06:17:40;;;;;;;8.32;5.32;;;;;;;14.73;59.80;101750.56;4897366;29;20131;-79
2022/06/03 06:20:27;;;;;;;8.43;5.85;;;;;;;14.82;59.76;101745.88;4897163;29;20394;-79
2022/06/03 06:23:02;;;;;;;9.25;6.40;;;;;;;14.92;59.20;101751.00;4914230;29;20040;-79
2022/06/03 06:25:38;;;;;;;11.30;5.88;;;;;;;15.00;59.07;101760.53;4900405;29;20449;-78
2022/06/03 06:28:23;;;;;;;7.90;5.82;;;;;;;15.13;59.16;101754.88;4933291;29;20441;-79
2022/06/03 06:31:06;;;;;;;8.65;5.63;;;;;;;15.27;58.91;101758.06;4884892;29;20054;-80
2022/06/03 06:33:59;;;;;;;11.70;5.53;;;;;;;15.36;58.79;101757.81;4896851;29;20080;-80
2022/06/03 06:36:53;;;;;;;11.65;5.53;;;;;;;15.45;58.13;101752.25;4913912;29;20059;-79
2022/06/03 06:39:44;;;;;;;8.90;5.80;;;;;;;15.59;57.90;101757.19;4905182;29;20044;-79
2022/06/03 06:42:41;;;;;;;7.32;5.57;;;;;;;15.70;57.88;101751.56;4916929;29;20036;-79
2022/06/03 06:45:29;;;;;;;7.38;5.10;;;;;;;15.85;57.58;101750.25;4912142;29;20044;-79
2022/06/03 06:48:33;;;;;;;16.67;5.93;;;;;;;15.94;56.70;101743.75;4888039;29;20483;-79
2022/06/03 06:51:36;;;;;;;14.60;5.85;;;;;;;16.05;56.69;101749.66;4914029;29;20052;-79
2022/06/03 06:54:10;;;;;;;14.18;5.65;;;;;;;16.20;56.86;101749.19;4896606;29;20051;-79
2022/06/03 06:57:08;;;;;;;10.23;6.07;;;;;;;16.34;56.43;101751.41;4885931;29;20409;-79
2022/06/03 06:59:47;;;;;;;11.98;5.18;;;;;;;16.47;55.25;101755.47;4915617;29;20040;-79
2022/06/03 07:02:18;;;;;;;8.35;4.57;;;;;;;16.53;54.84;101757.94;4913796;29;20135;-79
2022/06/03 07:04:54;;;;;;;9.07;5.25;;;;;;;16.63;55.13;101746.97;4913571;29;20091;-79
2022/06/03 07:07:33;;;;;;;11.70;5.35;;;;;;;16.74;55.39;101753.72;4913783;29;20122;-79
2022/06/03 07:10:13;;;;;;;10.15;5.47;;;;;;;16.86;55.00;101743.53;4913429;29;20036;-79
2022/06/03 07:12:49;;;;;;;11.05;5.65;;;;;;;16.95;54.07;101748.59;4913930;29;21278;-79
2022/06/03 07:15:25;;;;;;;7.72;4.80;;;;;;;17.01;53.88;101752.84;4913536;29;20075;-79
2022/06/03 07:21:09;;;;;;;8.48;5.30;;;;;;;17.27;53.99;101752.81;4913857;29;20202;-79
2022/06/03 07:23:54;;;;;;;9.38;4.90;;;;;;;17.39;53.52;101746.16;4913470;29;20044;-79
2022/06/03 07:26:32;;;;;;;9.10;5.43;;;;;;;17.47;52.68;101746.75;4913783;29;20044;-79
2022/06/03 07:29:12;;;;;;;8.32;5.15;;;;;;;17.59;52.35;101743.63;4902168;29;20055;-79
2022/06/03 07:32:21;;;;;;;8.35;5.15;;;;;;;17.73;52.77;101739.56;4913306;29;20480;-79
2022/06/03 07:34:56;;;;;;;12.10;5.63;;;;;;;17.87;52.55;101739.94;4889067;29;20104;-79
2022/06/03 07:37:24;;;;;;;12.27;5.65;;;;;;;18.01;51.87;101744.78;4913562;29;20040;-79
2022/06/03 07:39:52;;;;;;;9.27;6.28;;;;;;;18.07;51.66;101736.50;4913703;29;20124;-79
2022/06/03 07:42:26;;;;;;;11.55;5.78;;;;;;;18.24;51.85;101734.03;4913375;29;20123;-79
2022/06/03 07:44:56;;;;;;;13.70;5.45;;;;;;;18.32;51.20;101731.03;4911617;29;20361;-79
2022/06/03 07:47:23;;;;;;;9.10;5.30;;;;;;;18.47;51.39;101742.94;4896460;29;20498;-79
2022/06/03 07:49:59;;;;;;;7.25;5.70;;;;;;;18.55;50.45;101739.97;4913484;29;20629;-79
2022/06/03 07:52:41;;;;;;;7.57;5.70;;;;;;;18.58;50.36;101740.72;4896556;29;20059;-79
2022/06/03 07:55:21;;;;;;;6.50;5.70;;;;;;;18.63;50.02;101729.81;4903606;29;20445;-79
2022/06/03 07:57:52;;;;;;;7.22;5.78;;;;;;;18.69;49.56;101719.69;4917498;29;20084;-79
2022/06/03 08:00:20;;;;;;;9.00;5.63;;;;;;;18.79;48.94;101720.22;4913595;29;20075;-80
2022/06/03 08:02:46;;;;;;;10.13;6.28;;;;;;;18.85;48.59;101724.44;4913538;29;20103;-79
2022/06/03 08:05:18;;;;;;;11.45;5.10;;;;;;;18.92;48.07;101723.25;4896378;29;20077;-79
2022/06/03 08:10:56;;;;;;;11.07;5.65;;;;;;;19.23;48.78;101721.91;4907826;29;20060;-79
2022/06/03 08:13:23;;;;;;;7.10;5.35;;;;;;;19.28;47.58;101715.38;4930665;29;20043;-79
2022/06/03 08:16:01;;;;;;;8.55;5.25;;;;;;;19.40;48.42;101711.28;4926240;29;20158;-79
2022/06/03 08:18:42;;;;;;;7.97;5.40;;;;;;;19.52;47.35;101709.88;4916422;29;20441;-79
2022/06/03 08:21:15;;;;;;;7.28;5.22;;;;;;;19.67;47.54;101697.53;4924279;29;20048;-79
2022/06/03 08:23:40;;;;;;;7.85;5.10;;;;;;;19.85;47.03;101698.53;4916308;29;20441;-80
2022/06/03 08:26:16;;;;;;;11.18;5.22;;;;;;;19.98;47.02;101691.63;4916578;29;20050;-79
2022/06/03 08:28:48;;;;;;;16.23;5.63;;;;;;;20.12;46.90;101690.97;4899398;29;20044;-79
2022/06/03 08:31:15;;;;;;;12.98;4.85;;;;;;;20.23;45.39;101683.25;4916650;29;20040;-79
2022/06/03 08:33:47;;;;;;;5.85;4.90;;;;;;;20.33;45.54;101687.22;4916269;29;20040;-80
2022/06/03 08:36:30;;;;;;;11.00;4.90;;;;;;;20.45;45.94;101691.13;4916611;29;20099;-79
2022/06/03 08:39:13;;;;;;;8.15;5.57;;;;;;;20.55;45.83;101691.59;4916184;29;20063;-79
2022/06/03 08:41:51;;;;;;;10.40;5.63;;;;;;;20.63;45.34;101686.69;4899144;29;20363;-79
2022/06/03 08:44:29;;;;;;;9.38;4.80;;;;;;;20.82;45.74;101700.94;4886525;29;20044;-79
2022/06/03 08:47:08;;;;;;;9.32;4.78;;;;;;;20.94;45.31;101693.16;4914137;29;20048;-80
2022/06/03 08:50:10;;;;;;;10.02;5.03;;;;;;;20.99;44.76;101693.78;4916468;29;20032;-79
2022/06/03 08:52:54;;;;;;;6.50;4.43;;;;;;;21.01;44.99;101691.91;4914266;29;20066;-79
2022/06/03 08:55:30;;;;;;;10.52;4.90;;;;;;;21.03;44.53;101693.56;4911577;29;20518;-79
2022/06/03 08:58:01;;;;;;;6.57;3.83;;;;;;;21.14;44.79;101687.63;4901819;29;20040;-78
2022/06/03 09:00:43;;;;;;;4.95;4.30;;;;;;;21.23;44.43;101694.34;4898765;29;20147;-78
2022/06/03 09:03:15;;;;;;;5.82;4.40;;;;;;;21.26;43.21;101695.06;4915797;29;20425;-78
2022/06/03 09:05:55;;;;;;;7.25;4.05;;;;;;;21.44;43.91;101701.31;4916135;29;20543;-78
2022/06/03 09:08:33;;;;;;;8.27;4.00;;;;;;;21.61;43.23;101688.72;4915947;29;20078;-78
2022/06/03 09:11:04;;;;;;;6.82;3.88;;;;;;;21.73;42.16;101692.59;4915932;29;20115;-78
2022/06/03 09:13:47;;;;;;;7.57;4.22;;;;;;;21.84;42.99;101692.88;4915752;29;20044;-78
2022/06/03 09:16:17;;;;;;;6.40;3.95;;;;;;;21.90;42.07;101701.47;4898736;29;20055;-78
2022/06/03 09:18:48;;;;;;;5.55;3.70;;;;;;;21.97;42.92;101690.34;4902284;29;20139;-78
2022/06/03 09:21:22;;;;;;;13.43;4.03;;;;;;;22.10;40.55;101688.69;4915781;29;20039;-78
2022/06/03 09:23:57;;;;;;;5.80;3.30;;;;;;;22.22;40.45;101681.75;4915644;29;20071;-79
2022/06/03 09:26:36;;;;;;;5.35;3.42;;;;;;;22.38;40.41;101677.22;4915397;29;20496;-78
2022/06/03 09:29:05;;;;;;;5.70;2.92;;;;;;;22.51;39.76;101678.25;4903265;29;20040;-78
2022/06/03 09:31:34;;;;;;;8.20;3.87;;;;;;;22.68;38.95;101671.84;4899040;29;20400;-78
2022/06/03 09:34:01;;;;;;;7.78;3.10;;;;;;;22.88;39.56;101680.59;4903743;29;20457;-78
2022/06/03 09:36:28;;;;;;;4.57;2.83;;;;;;;22.95;37.86;101684.66;4921719;29;20603;-78
2022/06/03 09:38:59;;;;;;;9.23;2.97;;;;;;;23.04;37.18;101685.94;4915100;29;20043;-78
2022/06/03 09:41:31;;;;;;;;;;;;;;;23.11;38.90;101690.88;4915769;29;20048;-79
2022/06/03 09:43:59;;;;;;;6.70;2.55;;;;;;;23.21;36.45;101672.28;4911533;29;19919;-78
2022/06/03 09:46:31;;;;;;;6.18;2.40;;;;;;;23.29;36.16;101671.78;4913310;29;20044;-79
2022/06/03 09:48:58;;;;;;;4.95;2.13;;;;;;;23.28;35.11;101665.53;4912297;29;20052;-78
2022/06/03 09:54:12;;;;;;;5.47;2.47;;;;;;;23.37;34.85;101664.97;4897981;29;20516;-79
2022/06/03 09:56:38;;;;;;;4.03;2.30;;;;;;;23.43;35.21;101671.81;4915075;29;20420;-77
2022/06/03 09:59:05;;;;;;;4.20;2.20;;;;;;;23.60;35.82;101665.34;4914999;29;20044;-78
2022/06/03 10:01:31;;;;;;;3.47;2.03;;;;;;;23.73;34.26;101668.16;4914729;29;20553;-78
2022/06/03 10:04:04;;;;;;;7.82;2.40;;;;;;;23.80;34.09;101666.78;4915060;29;20047;-78
2022/06/03 10:06:47;;;;;;;3.50;2.13;;;;;;;23.86;34.37;101662.81;4897553;29;20439;-79
2022/06/03 10:15:37;;;;;;;4.78;2.22;;;;;;;24.10;33.16;101661.22;4897191;29;20147;-78
2022/06/03 10:17:31;;;;;;;3.78;2.15;;;;;;;24.17;32.42;101657.13;4914445;29;20119;-79
2022/06/03 10:19:57;;;;;;;5.28;2.10;;;;;;;24.30;32.77;101657.19;4881881;29;20044;-78
2022/06/03 10:22:24;;;;;;;5.05;2.08;;;;;;;24.47;33.46;101647.97;4928908;29;20056;-77
2022/06/03 10:24:49;;;;;;;3.33;1.92;;;;;;;24.64;32.61;101641.41;4918505;29;20139;-78
2022/06/03 10:27:18;;;;;;;2.90;1.77;;;;;;;24.77;32.87;101646.84;4897409;29;20123;-78
2022/06/03 10:29:49;;;;;;;3.38;1.73;;;;;;;24.88;31.78;101650.56;4897450;29;20092;-79
2022/06/03 10:32:17;;;;;;;5.40;2.45;;;;;;;24.95;32.09;101636.56;4913886;29;20511;-78
2022/06/03 10:34:42;;;;;;;2.53;1.83;;;;;;;25.11;32.18;101623.69;4897223;29;20048;-78
2022/06/03 10:37:18;;;;;;;3.30;1.73;;;;;;;25.29;31.31;101629.66;4914241;29;20048;-79
2022/06/03 10:39:44;;;;;;;2.72;1.77;;;;;;;25.49;31.08;101629.13;4914106;29;20144;-79
2022/06/03 10:42:15;;;;;;;3.35;2.20;;;;;;;25.75;31.68;101627.19;4914318;29;20119;-79
2022/06/03 10:44:45;;;;;;;4.07;2.00;;;;;;;25.80;30.52;101624.16;4894993;29;20070;-78
2022/06/03 10:47:17;;;;;;;5.63;1.83;;;;;;;25.91;30.45;101634.22;4914246;29;20487;-79
2022/06/03 10:49:58;;;;;;;4.68;2.03;;;;;;;25.92;30.91;101623.28;4914123;29;20047;-78
2022/06/03 11:01:25;;;;;;;2.78;1.70;;;;;;;26.15;30.85;101616.09;4914308;29;20111;-78
2022/06/03 11:03:53;;;;;;;2.15;1.60;;;;;;;26.14;29.27;101618.97;4914091;29;20048;-78
2022/06/03 11:06:23;;;;;;;2.67;1.48;;;;;;;26.37;30.39;101618.06;4896716;29;20106;-78
2022/06/03 11:08:59;;;;;;;6.57;2.05;;;;;;;26.50;29.55;101617.97;4914189;29;20052;-78
2022/06/03 11:11:45;;;;;;;3.50;1.90;;;;;;;26.53;30.03;101611.47;4913589;29;20047;-78
2022/06/03 11:14:32;;;;;;;10.52;1.95;;;;;;;26.36;30.62;101604.63;4914442;29;20112;-78
2022/06/03 11:17:04;;;;;;;3.58;2.08;;;;;;;26.23;29.18;101604.66;4896647;29;20067;-78
2022/06/03 11:19:33;;;;;;;6.68;2.17;;;;;;;26.46;31.37;101602.94;4913957;29;20052;-78
2022/06/03 11:22:24;;;;;;;3.22;1.80;;;;;;;26.68;30.66;101614.84;4913930;29;20044;-77
2022/06/03 11:24:57;;;;;;;6.78;1.80;;;;;;;26.82;30.58;101592.91;4913671;29;20052;-77
2022/06/03 11:27:30;;;;;;;4.32;1.75;;;;;;;26.87;29.18;101598.84;4913975;29;20499;-78
2022/06/03 11:30:01;;;;;;;3.63;1.70;;;;;;;26.90;29.50;101598.59;4927184;29;20041;-77
2022/06/03 11:32:30;;;;;;;3.35;1.45;;;;;;;27.06;27.95;101594.69;4913747;29;20052;-78
2022/06/03 11:35:03;;;;;;;9.45;1.40;;;;;;;27.28;27.97;101593.88;4913755;29;20112;-78
2022/06/03 11:37:37;;;;;;;4.03;1.52;;;;;;;27.41;27.46;101594.59;4913746;29;20044;-77
2022/06/03 11:40:05;;;;;;;5.30;1.38;;;;;;;27.34;26.61;101588.78;4913749;29;20051;-77
2022/06/03 11:42:46;;;;;;;4.53;1.25;;;;;;;27.19;27.53;101587.28;4913986;29;20118;-78
2022/06/03 11:45:21;;;;;;;2.03;1.25;;;;;;;27.23;26.82;101584.22;4899280;29;20449;-77
2022/06/03 11:47:57;;;;;;;5.32;1.50;;;;;;;27.47;27.33;101585.91;4898777;29;20059;-78
2022/06/03 11:50:25;;;;;;;4.43;1.55;;;;;;;27.52;26.47;101582.81;4922194;29;20036;-79
2022/06/03 11:52:54;;;;;;;2.65;1.25;;;;;;;27.77;25.66;101589.81;4917047;29;20036;-79
2022/06/03 11:55:22;;;;;;;5.07;1.40;;;;;;;27.90;24.57;101587.00;4926237;29;20183;-78
2022/06/03 11:58:03;;;;;;;2.08;1.05;;;;;;;28.01;25.88;101582.38;4904073;29;20083;-77
2022/06/03 12:00:36;;;;;;;1.60;0.90;;;;;;;28.24;25.25;101585.88;4900257;29;20040;-78
2022/06/03 12:03:08;;;;;;;4.72;1.52;;;;;;;28.25;26.42;101594.91;4915613;29;20047;-78
2022/06/03 12:06:00;;;;;;;2.65;1.60;;;;;;;28.21;26.97;101591.56;4917359;29;20180;-78
2022/06/03 12:08:41;;;;;;;3.08;1.40;;;;;;;28.39;26.65;101605.50;4912670;29;20032;-79
2022/06/03 12:14:33;;;;;;;3.95;1.50;;;;;;;28.41;26.91;101592.63;4908941;29;20115;-78
2022/06/03 12:17:09;;;;;;;1.92;1.25;;;;;;;28.56;26.86;101601.38;4913007;29;20059;-77
2022/06/03 12:19:39;;;;;;;3.45;1.48;;;;;;;28.61;25.76;101593.66;4916995;29;20075;-78
2022/06/03 12:22:28;;;;;;;2.15;1.50;;;;;;;28.63;25.83;101596.22;4916695;29;20122;-77
2022/06/03 12:24:54;;;;;;;2.47;1.38;;;;;;;28.45;25.88;101587.78;4894243;29;20493;-78
2022/06/03 12:27:29;;;;;;;2.92;1.60;;;;;;;28.45;25.01;101588.66;4916762;29;20048;-78
2022/06/03 12:30:17;;;;;;;4.70;1.52;;;;;;;28.61;25.55;101582.75;4916475;29;20073;-79
2022/06/03 12:32:59;;;;;;;2.50;1.58;;;;;;;28.65;24.93;101578.75;4916818;29;20063;-78
2022/06/03 12:35:43;;;;;;;3.38;1.77;;;;;;;28.81;26.05;101574.69;4916487;29;20131;-78
2022/06/03 12:38:21;;;;;;;6.68;1.70;;;;;;;28.96;24.87;101567.91;4916414;29;20067;-78
2022/06/03 12:40:48;;;;;;;2.50;1.33;;;;;;;29.18;24.19;101564.16;4916321;29;20048;-79
2022/06/03 12:43:28;;;;;;;3.88;1.35;;;;;;;29.25;24.88;101567.19;4898902;29;20080;-78
2022/06/03 12:46:05;;;;;;;4.38;1.50;;;;;;;28.99;23.17;101567.63;4914587;29;20044;-78
2022/06/03 12:48:48;;;;;;;8.98;1.38;;;;;;;29.11;24.11;101561.09;4899100;29;20044;-78
2022/06/03 12:51:28;;;;;;;5.95;1.70;;;;;;;29.14;24.24;101568.16;4899075;29;20047;-78
2022/06/03 12:53:58;;;;;;;6.50;1.50;;;;;;;29.30;22.61;101571.25;4916126;29;20497;-79
2022/06/03 12:56:55;;;;;;;17.75;2.38;;;;;;;29.47;24.79;101556.03;4916268;29;20048;-78
2022/06/03 12:59:32;;;;;;;7.93;1.58;;;;;;;30.00;24.36;101554.91;4899132;29;20063;-79
2022/06/03 13:02:00;;;;;;;3.70;1.38;;;;;;;30.02;22.76;101552.88;4899248;29;20531;-78
2022/06/03 13:04:43;;;;;;;4.80;1.60;;;;;;;29.93;24.49;101553.75;4915851;29;20066;-79